createdAt,value
2019-01-11T00:03:16.189Z,1.48
2019-01-11T00:08:12.204Z,1.52
2019-01-11T00:13:08.240Z,1.51
2019-01-11T00:18:04.243Z,1.55
2019-01-11T00:23:00.292Z,1.46
2019-01-11T00:27:56.198Z,1.52
2019-01-11T00:32:52.085Z,1.51
2019-01-11T00:37:48.084Z,1.55
2019-01-11T00:42:44.089Z,1.55
2019-01-11T00:47:40.083Z,1.53
2019-01-11T00:52:36.041Z,1.56
2019-01-11T00:57:31.946Z,1.56
2019-01-11T01:02:27.952Z,1.60
2019-01-11T01:07:23.967Z,1.65
2019-01-11T01:12:19.866Z,1.57
2019-01-11T01:17:15.872Z,1.57
2019-01-11T01:22:11.785Z,1.63
2019-01-11T01:27:07.892Z,1.62
2019-01-11T01:32:03.987Z,1.61
2019-01-11T01:36:59.906Z,1.72
2019-01-11T01:41:55.903Z,1.70
2019-01-11T01:46:51.813Z,1.76
2019-01-11T01:51:47.739Z,1.56
2019-01-11T01:56:43.684Z,1.56
2019-01-11T02:01:39.675Z,1.61
2019-01-11T02:06:35.690Z,1.59
2019-01-11T02:11:31.620Z,1.62
2019-01-11T02:16:27.520Z,1.57
2019-01-11T02:21:23.410Z,1.54
2019-01-11T02:26:19.314Z,1.52
2019-01-11T02:31:15.333Z,1.60
2019-01-11T02:36:11.325Z,1.59
2019-01-11T02:41:07.226Z,1.61
2019-01-11T02:46:03.228Z,1.53
2019-01-11T02:50:59.153Z,1.59
2019-01-11T02:55:55.188Z,1.59
2019-01-11T03:00:51.094Z,1.64
2019-01-11T03:05:46.993Z,1.63
2019-01-11T03:10:42.995Z,1.73
2019-01-11T03:15:38.890Z,1.71
2019-01-11T03:20:34.787Z,1.69
2019-01-11T03:25:30.792Z,1.74
2019-01-11T03:30:26.721Z,1.71
2019-01-11T03:35:22.669Z,1.75
2019-01-11T03:40:20.615Z,1.72
2019-01-11T03:45:18.703Z,1.74
2019-01-11T03:50:16.930Z,1.76
2019-01-11T03:55:13.738Z,1.85
2019-01-11T04:00:15.573Z,1.86
2019-01-11T04:05:11.791Z,1.82
2019-01-11T04:10:11.504Z,1.81
2019-01-11T04:15:10.419Z,1.88
2019-01-11T04:20:15.710Z,1.88
2019-01-11T04:25:13.616Z,1.89
2019-01-11T04:30:12.215Z,1.91
2019-01-11T04:35:08.226Z,1.86
2019-01-11T04:40:05.537Z,1.92
2019-01-11T04:45:01.454Z,2.06
2019-01-11T04:49:57.358Z,2.01
2019-01-11T04:54:53.260Z,2.01
2019-01-11T04:59:49.157Z,1.97
2019-01-11T05:04:45.064Z,2.00
2019-01-11T05:09:40.995Z,1.94
2019-01-11T05:14:36.880Z,2.02
2019-01-11T05:19:33.505Z,2.11
2019-01-11T05:24:29.365Z,2.12
2019-01-11T05:29:25.263Z,2.10
2019-01-11T05:34:21.177Z,2.18
2019-01-11T05:39:17.181Z,2.18
2019-01-11T05:44:13.089Z,2.23
2019-01-11T05:49:13.432Z,2.10
2019-01-11T05:54:09.461Z,2.23
2019-01-11T05:59:05.687Z,2.28
2019-01-11T06:04:03.497Z,2.30
2019-01-11T06:08:59.395Z,2.43
2019-01-11T06:13:55.287Z,2.40
2019-01-11T06:18:51.547Z,2.29
2019-01-11T06:23:47.563Z,2.29
2019-01-11T06:28:43.443Z,2.34
2019-01-11T06:33:39.352Z,2.42
2019-01-11T06:38:35.248Z,2.48
2019-01-11T06:43:31.144Z,2.51
2019-01-11T06:48:28.973Z,2.55
2019-01-11T06:53:24.893Z,2.49
2019-01-11T06:58:20.817Z,2.47
2019-01-11T07:03:16.722Z,2.44
2019-01-11T07:08:12.621Z,2.44
2019-01-11T07:13:09.481Z,2.48
2019-01-11T07:18:05.581Z,2.47
2019-01-11T07:23:01.482Z,2.50
2019-01-11T07:27:59.390Z,2.46
2019-01-11T07:32:55.399Z,2.54
2019-01-11T07:37:51.327Z,2.59
2019-01-11T07:42:47.218Z,2.63
2019-01-11T07:47:43.363Z,2.65
2019-01-11T07:52:40.203Z,2.66
2019-01-11T07:57:36.672Z,2.65
2019-01-11T08:02:32.620Z,2.74
2019-01-11T08:07:28.514Z,2.85
2019-01-11T08:12:24.542Z,2.78
2019-01-11T08:17:20.542Z,2.81
2019-01-11T08:22:18.332Z,2.93
2019-01-11T08:27:14.240Z,2.89
2019-01-11T08:32:10.140Z,2.97
2019-01-11T08:37:06.059Z,3.08
2019-01-11T08:42:01.968Z,3.08
2019-01-11T08:46:57.869Z,3.11
2019-01-11T08:51:53.867Z,3.10
2019-01-11T08:56:49.798Z,3.15
2019-01-11T09:01:45.698Z,3.25
2019-01-11T09:06:41.615Z,3.16
2019-01-11T09:11:37.588Z,3.19
2019-01-11T09:16:33.487Z,3.24
2019-01-11T09:21:30.414Z,3.20
2019-01-11T09:26:26.417Z,3.29
2019-01-11T09:31:22.318Z,3.23
2019-01-11T09:36:18.420Z,3.24
2019-01-11T09:41:14.324Z,3.33
2019-01-11T09:46:10.240Z,3.45
2019-01-11T09:51:06.162Z,3.49
2019-01-11T09:56:02.264Z,3.48
2019-01-11T10:00:59.260Z,3.54
2019-01-11T10:05:55.365Z,3.42
2019-01-11T10:10:51.262Z,3.54
2019-01-11T10:15:48.054Z,3.62
2019-01-11T10:20:44.187Z,3.69
2019-01-11T10:25:40.320Z,3.70
2019-01-11T10:30:36.218Z,3.78
2019-01-11T10:35:32.211Z,3.72
2019-01-11T10:40:28.216Z,3.90
2019-01-11T10:45:24.230Z,3.78
2019-01-11T10:50:20.230Z,3.80
2019-01-11T10:55:19.007Z,3.89
2019-01-11T11:00:18.557Z,3.79
2019-01-11T11:05:14.603Z,3.96
2019-01-11T11:10:12.123Z,4.13
2019-01-11T11:15:13.318Z,4.23
2019-01-11T11:20:11.809Z,4.34
2019-01-11T11:25:10.210Z,4.59
2019-01-11T11:30:09.322Z,4.60
2019-01-11T11:35:05.219Z,4.61
2019-01-11T11:40:01.129Z,4.48
2019-01-11T11:44:57.022Z,4.57
2019-01-11T11:49:53.665Z,4.64
2019-01-11T11:54:49.544Z,4.82
2019-01-11T11:59:45.451Z,5.05
2019-01-11T12:04:41.342Z,5.03
2019-01-11T12:09:37.223Z,5.04
2019-01-11T12:14:33.127Z,5.13
2019-01-11T12:19:29.023Z,5.19
2019-01-11T12:24:24.940Z,5.14
2019-01-11T12:29:20.948Z,5.27
2019-01-11T12:34:16.852Z,5.33
2019-01-11T12:39:12.752Z,5.53
2019-01-11T12:44:08.777Z,5.42
2019-01-11T12:49:07.902Z,5.72
2019-01-11T12:54:03.998Z,5.58
2019-01-11T12:58:59.923Z,5.76
2019-01-11T13:03:55.840Z,5.93
2019-01-11T13:08:51.729Z,5.96
2019-01-11T13:13:48.398Z,5.95
2019-01-11T13:18:47.508Z,6.10
2019-01-11T13:23:43.615Z,6.15
2019-01-11T13:28:39.512Z,6.12
2019-01-11T13:33:35.509Z,6.21
2019-01-11T13:38:31.421Z,6.24
2019-01-11T13:43:27.329Z,6.30
2019-01-11T13:48:23.228Z,6.33
2019-01-11T13:53:19.327Z,6.45
2019-01-11T13:58:15.227Z,6.46
2019-01-11T14:03:11.227Z,6.36
2019-01-11T14:08:07.240Z,6.36
2019-01-11T14:13:03.150Z,6.53
2019-01-11T14:17:59.050Z,6.54
2019-01-11T14:22:55.375Z,6.69
2019-01-11T14:27:51.303Z,6.78
2019-01-11T14:32:47.313Z,6.89
2019-01-11T14:37:43.313Z,6.93
2019-01-11T14:42:39.307Z,6.93
2019-01-11T14:47:35.433Z,7.01
2019-01-11T14:52:31.406Z,7.08
2019-01-11T14:57:27.456Z,7.15
2019-01-11T15:02:23.343Z,7.17
2019-01-11T15:07:19.246Z,7.21
2019-01-11T15:12:15.159Z,7.22
2019-01-11T15:17:11.053Z,7.21
2019-01-11T15:22:06.959Z,7.22
2019-01-11T15:27:02.851Z,7.19
2019-01-11T15:31:58.755Z,7.19
2019-01-11T15:36:54.666Z,7.18
2019-01-11T15:41:50.576Z,7.17
2019-01-11T15:46:46.484Z,7.20
2019-01-11T15:51:42.385Z,7.21
2019-01-11T15:56:38.318Z,7.20
2019-01-11T16:01:34.209Z,7.23
2019-01-11T16:06:30.425Z,7.23
2019-01-11T16:11:30.331Z,7.21
2019-01-11T16:16:26.329Z,7.21
2019-01-11T16:21:22.330Z,7.19
2019-01-11T16:26:18.240Z,7.18
2019-01-11T16:31:14.142Z,7.24
2019-01-11T16:36:10.048Z,7.24
2019-01-11T16:41:05.976Z,7.26
2019-01-11T16:46:01.973Z,7.22
2019-01-11T16:50:57.875Z,7.21
2019-01-11T16:55:53.818Z,7.18
2019-01-11T17:00:49.730Z,7.12
2019-01-11T17:05:45.728Z,7.13
2019-01-11T17:10:41.643Z,7.09
2019-01-11T17:15:37.544Z,7.13
2019-01-11T17:20:33.452Z,7.19
2019-01-11T17:25:29.350Z,7.14
2019-01-11T17:30:25.287Z,7.12
2019-01-11T17:35:21.918Z,7.14
2019-01-11T17:40:17.818Z,7.13
2019-01-11T17:45:21.748Z,7.11
2019-01-11T17:50:19.121Z,7.09
2019-01-11T17:55:15.186Z,7.07
2019-01-11T18:00:13.875Z,7.11
2019-01-11T18:05:12.354Z,7.04
2019-01-11T18:10:10.373Z,7.03
2019-01-11T18:15:11.219Z,7.06
2019-01-11T18:20:17.542Z,7.16
2019-01-11T18:25:14.456Z,7.15
2019-01-11T18:30:15.442Z,7.02
2019-01-11T18:35:12.440Z,6.96
2019-01-11T18:40:19.866Z,6.89
2019-01-11T18:45:15.964Z,6.87
2019-01-11T18:50:39.744Z,6.88
2019-01-11T18:55:37.552Z,6.88
2019-01-11T19:00:35.540Z,6.91
2019-01-11T19:05:33.525Z,6.92
2019-01-11T19:10:29.430Z,6.94
2019-01-11T19:15:26.234Z,6.90
2019-01-11T19:20:24.238Z,6.89
2019-01-11T19:25:20.233Z,6.89
2019-01-11T19:30:19.043Z,6.90
2019-01-11T19:35:15.039Z,6.93
2019-01-11T19:40:13.455Z,6.94
2019-01-11T19:45:11.382Z,6.86
2019-01-11T19:50:10.149Z,6.83
2019-01-11T19:55:07.771Z,6.82
2019-01-11T20:00:33.085Z,6.85
2019-01-11T20:05:28.993Z,6.87
2019-01-11T20:10:27.287Z,6.88
2019-01-11T20:15:23.407Z,6.95
2019-01-11T20:20:19.690Z,6.89
2019-01-11T20:25:18.119Z,6.90
2019-01-11T20:30:22.774Z,6.87
2019-01-11T20:35:18.789Z,6.81
2019-01-11T20:40:36.476Z,6.82
2019-01-11T20:45:32.397Z,6.81
2019-01-11T20:50:28.459Z,6.77
2019-01-11T20:55:24.927Z,6.79
2019-01-11T21:00:27.008Z,6.85
2019-01-11T21:05:24.218Z,6.83
2019-01-11T21:10:20.991Z,6.77
2019-01-11T21:15:21.712Z,6.78
2019-01-11T21:20:18.615Z,7.00
2019-01-11T21:25:16.561Z,7.26
2019-01-11T21:30:22.308Z,7.02
2019-01-11T21:35:18.514Z,6.94
2019-01-11T21:40:16.397Z,6.84
2019-01-11T21:45:13.651Z,6.97
2019-01-11T21:50:14.827Z,6.95
2019-01-11T21:55:12.147Z,6.91
2019-01-11T22:05:36.799Z,7.04
2019-01-11T22:10:32.703Z,6.74
2019-01-11T22:15:28.702Z,6.68
2019-01-11T22:20:24.699Z,6.66
2019-01-11T22:25:20.642Z,6.66
2019-01-11T22:30:21.376Z,6.71
2019-01-11T22:35:18.423Z,6.78
2019-01-11T22:40:21.251Z,6.86
2019-01-11T22:45:17.161Z,6.84
2019-01-11T22:50:14.788Z,6.86
2019-01-11T22:55:15.572Z,6.83
2019-01-11T23:00:35.213Z,6.81
2019-01-11T23:05:31.342Z,6.66
2019-01-11T23:10:50.884Z,6.61
2019-01-11T23:15:47.015Z,6.55
2019-01-11T23:20:43.134Z,6.58
2019-01-11T23:25:39.244Z,6.56
2019-01-11T23:30:35.390Z,6.57
2019-01-11T23:35:31.409Z,6.57
2019-01-11T23:40:27.330Z,6.54
2019-01-11T23:45:23.508Z,6.57
2019-01-11T23:50:19.452Z,6.55
2019-01-11T23:55:15.382Z,6.57
